Time;durP1;ratioP1;P1;durP2;ratioP2;P2;SDS_P1;SDS_P2;PMS_P1;PMS_P2;Temp;Humidity;BMP_temperature;BMP_pressure;BME280_temperature;BME280_humidity;BME280_pressure;Samples;Min_cycle;Max_cycle;Signal;HPM_P1;HPM_P2
2022/06/13 00:00:34;;;;;;;9.73;4.38;;;17.50;99.90;;;;;;5043526;28;20021;-69
2022/06/13 00:03:00;;;;;;;8.57;4.63;;;17.50;99.90;;;;;;5043005;28;20060;-68
2022/06/13 00:05:27;;;;;;;8.70;4.97;;;17.40;99.90;;;;;;5044201;28;20505;-69
2022/06/13 00:07:52;;;;;;;8.77;4.18;;;17.30;99.90;;;;;;5042690;28;20034;-68
2022/06/13 00:10:20;;;;;;;8.90;4.72;;;17.30;99.90;;;;;;5042746;28;20111;-68
2022/06/13 00:12:45;;;;;;;12.38;4.78;;;17.30;99.90;;;;;;5042403;28;20048;-68
2022/06/13 00:15:14;;;;;;;9.40;4.65;;;17.30;99.90;;;;;;5042013;28;20450;-68
2022/06/13 00:17:42;;;;;;;10.88;4.75;;;17.30;99.90;;;;;;5043085;28;20120;-68
2022/06/13 00:20:09;;;;;;;11.70;4.57;;;17.20;99.90;;;;;;5047265;28;20013;-68
2022/06/13 00:22:35;;;;;;;12.45;4.47;;;17.20;99.90;;;;;;5041219;28;20029;-69
2022/06/13 00:25:02;;;;;;;10.77;4.75;;;17.20;99.90;;;;;;5045257;28;20047;-68
2022/06/13 00:27:28;;;;;;;11.40;4.40;;;17.20;99.90;;;;;;5040749;28;20041;-68
2022/06/13 00:29:53;;;;;;;8.38;5.13;;;17.10;99.90;;;;;;5043203;28;20025;-68
2022/06/13 00:32:19;;;;;;;9.40;5.20;;;17.00;99.90;;;;;;5043042;28;20056;-68
2022/06/13 00:34:46;;;;;;;12.95;4.97;;;17.00;99.90;;;;;;5041620;28;20394;-68
2022/06/13 00:37:13;;;;;;;10.18;5.25;;;17.00;99.90;;;;;;5043831;28;20017;-68
2022/06/13 00:39:39;;;;;;;8.02;5.07;;;16.90;99.90;;;;;;5041673;28;20021;-69
2022/06/13 00:42:05;;;;;;;8.32;5.15;;;16.90;99.90;;;;;;5025222;28;20132;-69
2022/06/13 00:44:35;;;;;;;13.10;5.50;;;16.90;99.90;;;;;;5040597;28;20517;-68
2022/06/13 00:47:03;;;;;;;7.40;4.97;;;16.90;99.90;;;;;;5041661;28;20401;-69
2022/06/13 00:49:39;;;;;;;11.30;5.15;;;16.80;99.90;;;;;;5042168;28;20436;-68
2022/06/13 00:52:18;;;;;;;10.13;5.40;;;16.80;99.90;;;;;;5042725;28;20393;-68
2022/06/13 00:54:47;;;;;;;10.70;5.30;;;16.80;99.90;;;;;;5041979;28;20100;-68
2022/06/13 00:57:19;;;;;;;10.80;4.78;;;16.80;99.90;;;;;;5025950;28;20501;-68
2022/06/13 00:59:49;;;;;;;10.52;5.38;;;16.80;99.90;;;;;;5041555;28;20112;-68
2022/06/13 01:02:16;;;;;;;7.28;4.65;;;16.70;99.90;;;;;;5042315;28;20021;-68
2022/06/13 01:04:42;;;;;;;10.55;5.25;;;16.70;99.90;;;;;;5043818;28;20476;-68
2022/06/13 01:07:10;;;;;;;11.85;4.88;;;16.70;99.90;;;;;;5044444;28;20083;-68
2022/06/13 01:12:25;;;;;;;11.77;5.45;;;16.70;99.90;;;;;;5042885;28;20049;-68
2022/06/13 01:15:25;;;;;;;9.05;5.03;;;16.70;99.90;;;;;;5041657;28;20497;-68
2022/06/13 01:18:07;;;;;;;11.80;5.53;;;16.60;99.90;;;;;;5043574;28;20029;-68
2022/06/13 01:20:58;;;;;;;8.20;4.82;;;16.60;99.90;;;;;;5041721;28;20505;-68
2022/06/13 01:24:02;;;;;;;6.32;4.70;;;16.50;99.90;;;;;;5042886;28;20466;-68
2022/06/13 01:26:46;;;;;;;10.20;5.05;;;16.60;99.90;;;;;;5043396;28;20406;-68
2022/06/13 01:29:37;;;;;;;8.55;5.00;;;16.60;99.90;;;;;;5043028;28;20025;-68
2022/06/13 01:32:24;;;;;;;14.43;5.60;;;16.60;99.90;;;;;;5042834;28;20482;-68
2022/06/13 01:35:14;;;;;;;9.73;4.65;;;16.60;99.90;;;;;;5043118;28;20027;-68
2022/06/13 01:38:20;;;;;;;10.35;4.82;;;16.60;99.90;;;;;;5042550;28;20466;-68
2022/06/13 01:41:09;;;;;;;13.90;5.85;;;16.70;99.90;;;;;;5044127;28;20091;-69
2022/06/13 01:44:02;;;;;;;10.10;5.75;;;16.60;99.90;;;;;;5041576;28;20092;-68
2022/06/13 01:46:36;;;;;;;10.13;4.95;;;16.70;99.90;;;;;;5050391;28;20024;-68
2022/06/13 01:49:23;;;;;;;8.48;4.50;;;16.60;99.90;;;;;;5041267;28;20021;-68
2022/06/13 01:52:19;;;;;;;9.07;5.22;;;16.60;99.90;;;;;;5038174;28;20022;-68
2022/06/13 01:54:54;;;;;;;10.77;5.10;;;16.60;99.90;;;;;;5044423;28;20021;-69
2022/06/13 01:57:43;;;;;;;11.55;5.60;;;16.60;99.90;;;;;;5041277;28;20120;-68
2022/06/13 02:00:14;;;;;;;10.82;5.00;;;16.60;99.90;;;;;;5027929;28;20067;-68
2022/06/13 02:02:53;;;;;;;8.30;5.20;;;16.60;99.90;;;;;;5042392;28;20474;-68
2022/06/13 02:05:55;;;;;;;9.07;5.68;;;16.60;99.90;;;;;;5065731;28;20035;-68
2022/06/13 02:08:23;;;;;;;8.82;5.57;;;16.60;99.90;;;;;;5044130;28;20037;-68
2022/06/13 02:11:20;;;;;;;10.27;5.57;;;16.70;99.90;;;;;;5041414;28;20063;-68
2022/06/13 02:14:08;;;;;;;11.90;6.63;;;16.70;99.90;;;;;;5042187;28;20572;-68
2022/06/13 02:16:55;;;;;;;13.75;5.43;;;16.70;99.90;;;;;;5044981;28;20021;-68
2022/06/13 02:19:46;;;;;;;10.35;5.25;;;16.70;99.90;;;;;;5046499;28;20040;-68
2022/06/13 02:22:21;;;;;;;9.93;5.15;;;16.70;99.90;;;;;;5053756;28;20048;-68
2022/06/13 02:25:24;;;;;;;9.00;5.35;;;16.70;99.90;;;;;;5046550;28;20039;-68
2022/06/13 02:27:54;;;;;;;;;;;16.60;99.90;;;;;;5047409;28;20041;-68
2022/06/13 02:30:22;;;;;;;7.68;4.75;;;16.70;99.90;;;;;;5046724;28;20182;-68
2022/06/13 02:33:02;;;;;;;15.68;5.15;;;16.70;99.90;;;;;;5049659;28;20446;-68
2022/06/13 02:35:36;;;;;;;10.50;4.85;;;16.60;99.90;;;;;;5047504;28;20125;-69
2022/06/13 02:38:11;;;;;;;10.00;4.65;;;16.60;99.90;;;;;;5045738;28;20406;-69
2022/06/13 02:40:50;;;;;;;9.98;4.55;;;16.60;99.90;;;;;;5043588;28;20018;-68
2022/06/13 02:43:23;;;;;;;11.40;5.20;;;16.60;99.90;;;;;;5043599;28;20029;-68
2022/06/13 02:45:51;;;;;;;;;;;16.60;99.90;;;;;;5046769;28;20021;-69
2022/06/13 02:48:26;;;;;;;10.57;5.32;;;16.70;99.90;;;;;;5045849;28;19904;-68
2022/06/13 02:51:13;;;;;;;8.15;4.75;;;16.70;99.90;;;;;;5046503;28;20064;-68
2022/06/13 02:53:49;;;;;;;8.18;5.35;;;16.60;99.90;;;;;;5045392;28;20091;-68
2022/06/13 02:57:23;;;;;;;11.48;5.65;;;16.70;99.90;;;;;;5044343;28;20053;-68
2022/06/13 02:59:33;;;;;;;9.95;5.13;;;16.70;99.90;;;;;;5047167;28;20037;-68
2022/06/13 03:02:01;;;;;;;11.90;4.85;;;16.70;99.90;;;;;;5049940;28;20393;-70
2022/06/13 03:04:40;;;;;;;10.90;5.55;;;16.70;99.90;;;;;;5044920;28;20068;-68
2022/06/13 03:07:18;;;;;;;8.43;4.20;;;16.70;99.90;;;;;;5046072;28;20021;-68
2022/06/13 03:09:52;;;;;;;8.70;4.70;;;16.60;99.90;;;;;;5045484;28;20033;-70
2022/06/13 03:12:51;;;;;;;9.02;4.43;;;16.60;99.90;;;;;;5044461;28;20442;-70
2022/06/13 03:15:22;;;;;;;9.07;4.82;;;16.60;99.90;;;;;;5045070;28;20037;-69
2022/06/13 03:17:59;;;;;;;9.20;4.93;;;16.70;99.90;;;;;;5043651;28;20041;-70
2022/06/13 03:20:46;;;;;;;14.48;6.18;;;16.70;99.90;;;;;;5045296;28;20021;-69
2022/06/13 03:23:19;;;;;;;14.13;7.18;;;16.70;99.90;;;;;;5045528;28;20021;-70
2022/06/13 03:26:16;;;;;;;14.77;6.43;;;16.70;99.90;;;;;;5044518;28;20071;-69
2022/06/13 03:29:13;;;;;;;17.85;6.32;;;16.70;99.90;;;;;;5044881;28;20040;-69
2022/06/13 03:31:45;;;;;;;14.68;6.93;;;16.80;99.90;;;;;;5042341;28;20109;-70
2022/06/13 03:34:20;;;;;;;12.65;7.35;;;16.70;99.90;;;;;;5043544;28;20047;-70
2022/06/13 03:37:03;;;;;;;13.27;6.50;;;16.80;99.90;;;;;;5043343;28;20144;-70
2022/06/13 03:39:48;;;;;;;18.23;7.43;;;16.80;99.90;;;;;;5044357;28;20061;-69
2022/06/13 03:42:33;;;;;;;16.90;6.50;;;16.80;99.90;;;;;;5043495;28;20470;-69
2022/06/13 03:45:16;;;;;;;18.10;7.53;;;16.80;99.90;;;;;;5046098;28;20036;-69
2022/06/13 03:48:01;;;;;;;;;;;16.80;99.90;;;;;;5045573;28;20021;-67
2022/06/13 03:50:33;;;;;;;12.98;6.78;;;16.80;99.90;;;;;;5040698;28;20349;-69
2022/06/13 03:53:13;;;;;;;12.82;6.53;;;16.80;99.90;;;;;;5043631;28;20116;-69
2022/06/13 03:55:53;;;;;;;15.88;6.97;;;16.80;99.90;;;;;;5042361;28;20037;-69
2022/06/13 03:58:27;;;;;;;16.35;7.30;;;16.80;99.90;;;;;;5044689;28;20035;-70
2022/06/13 04:01:00;;;;;;;19.65;6.57;;;16.90;99.90;;;;;;5043309;28;20082;-70
2022/06/13 04:03:27;;;;;;;15.57;6.88;;;16.90;99.90;;;;;;5041825;28;20474;-69
2022/06/13 04:06:05;;;;;;;12.93;6.00;;;17.00;99.90;;;;;;5032351;28;20036;-69
2022/06/13 04:08:36;;;;;;;19.05;7.65;;;17.00;99.90;;;;;;5034348;28;20068;-69
2022/06/13 04:11:16;;;;;;;16.23;6.32;;;17.00;99.90;;;;;;5052689;28;20465;-69
2022/06/13 04:14:11;;;;;;;14.95;7.07;;;17.00;99.90;;;;;;5073789;28;20048;-70
2022/06/13 04:17:04;;;;;;;15.80;6.65;;;17.00;99.90;;;;;;5072636;28;20076;-69
2022/06/13 04:19:40;;;;;;;16.27;6.65;;;17.00;99.90;;;;;;5073912;28;20062;-69
2022/06/13 04:22:35;;;;;;;19.25;5.97;;;17.00;99.90;;;;;;5073309;28;20039;-70
2022/06/13 04:25:10;;;;;;;16.02;6.45;;;17.00;99.90;;;;;;5073603;28;20016;-70
2022/06/13 04:27:54;;;;;;;15.85;7.30;;;17.00;99.90;;;;;;5062692;28;20043;-70
2022/06/13 04:30:25;;;;;;;18.85;6.30;;;16.90;99.90;;;;;;5060540;28;20025;-70
2022/06/13 04:33:33;;;;;;;17.65;7.03;;;17.00;99.90;;;;;;5052982;28;20045;-70
2022/06/13 04:36:00;;;;;;;18.05;7.35;;;16.90;99.90;;;;;;5053184;28;20021;-70
2022/06/13 04:38:27;;;;;;;15.55;7.47;;;16.90;99.90;;;;;;5050790;28;20091;-70
2022/06/13 04:40:58;;;;;;;16.77;7.40;;;16.90;99.90;;;;;;5039904;28;20037;-69
2022/06/13 04:43:29;;;;;;;14.13;7.35;;;17.00;99.90;;;;;;5048092;28;20036;-70
2022/06/13 04:46:03;;;;;;;14.25;7.18;;;17.00;99.90;;;;;;5046413;28;20048;-70
2022/06/13 04:48:31;;;;;;;17.20;7.03;;;17.00;99.90;;;;;;5051399;28;20060;-69
2022/06/13 04:51:03;;;;;;;19.02;7.18;;;17.00;99.90;;;;;;5052511;28;20049;-69
2022/06/13 04:54:12;;;;;;;15.02;7.47;;;17.00;99.90;;;;;;5053327;28;20040;-69
2022/06/13 04:56:38;;;;;;;15.40;7.25;;;17.00;99.90;;;;;;5033388;28;20047;-69
2022/06/13 04:59:05;;;;;;;12.43;7.18;;;17.10;99.90;;;;;;5047169;28;20465;-69
2022/06/13 05:01:41;;;;;;;17.77;8.18;;;17.10;99.90;;;;;;5064315;28;20032;-69
2022/06/13 05:04:13;;;;;;;16.67;7.85;;;17.20;99.90;;;;;;5073061;28;20475;-69
2022/06/13 05:06:44;;;;;;;16.85;7.18;;;17.20;99.90;;;;;;5073407;28;20021;-70
2022/06/13 05:09:10;;;;;;;16.77;6.85;;;17.20;99.90;;;;;;5072865;28;20437;-69
2022/06/13 05:12:04;;;;;;;16.70;6.97;;;17.20;99.90;;;;;;5053759;28;20103;-69
2022/06/13 05:14:44;;;;;;;18.83;6.75;;;17.30;99.90;;;;;;5063308;28;20048;-69
2022/06/13 05:17:49;;;;;;;14.80;7.20;;;17.20;99.90;;;;;;5073198;28;20017;-70
2022/06/13 05:20:24;;;;;;;18.40;7.85;;;17.20;99.90;;;;;;5071147;28;20420;-69
2022/06/13 05:23:11;;;;;;;14.18;7.70;;;17.20;99.90;;;;;;5071810;28;20028;-69
2022/06/13 05:25:58;;;;;;;21.25;8.07;;;17.20;99.90;;;;;;5058015;28;20033;-69
2022/06/13 05:28:26;;;;;;;16.88;7.10;;;17.20;99.90;;;;;;5051602;28;20414;-69
2022/06/13 05:30:55;;;;;;;18.92;8.00;;;17.20;99.90;;;;;;5051405;28;20383;-69
2022/06/13 05:33:31;;;;;;;22.02;8.55;;;17.30;99.90;;;;;;5052296;28;20029;-69
2022/06/13 05:36:03;;;;;;;19.48;8.68;;;17.40;99.90;;;;;;5052626;28;20036;-69
2022/06/13 05:38:32;;;;;;;24.50;8.15;;;17.40;99.90;;;;;;5051471;28;20028;-69
2022/06/13 05:40:58;;;;;;;20.70;8.50;;;17.40;99.90;;;;;;5048182;28;20030;-69
2022/06/13 05:43:24;;;;;;;21.80;8.65;;;17.40;99.90;;;;;;5049912;28;20033;-69
2022/06/13 05:45:51;;;;;;;19.85;9.40;;;17.50;99.90;;;;;;5052191;28;20032;-69
2022/06/13 05:48:20;;;;;;;27.02;9.95;;;17.50;99.90;;;;;;5051868;28;20029;-69
2022/06/13 05:50:47;;;;;;;18.77;9.00;;;17.50;99.90;;;;;;5053925;28;20548;-69
2022/06/13 05:53:20;;;;;;;24.80;9.30;;;17.50;99.90;;;;;;5056586;28;20037;-69
2022/06/13 05:55:47;;;;;;;25.27;8.82;;;17.60;99.90;;;;;;5053997;28;20070;-69
2022/06/13 05:58:16;;;;;;;29.15;8.43;;;17.70;99.90;;;;;;5055190;28;20427;-69
2022/06/13 06:00:52;;;;;;;22.27;9.13;;;17.70;99.90;;;;;;5044061;28;20021;-69
2022/06/13 06:03:18;;;;;;;19.70;8.80;;;17.90;99.90;;;;;;5035393;28;20017;-69
2022/06/13 06:05:45;;;;;;;18.90;9.02;;;17.80;99.90;;;;;;5054877;28;20390;-70
2022/06/13 06:08:33;;;;;;;26.15;10.63;;;17.80;99.90;;;;;;5056180;28;20021;-69
2022/06/13 06:10:59;;;;;;;20.13;9.43;;;17.70;99.90;;;;;;5055792;28;20037;-70
2022/06/13 06:13:26;;;;;;;22.80;9.30;;;17.80;99.90;;;;;;5056217;28;20505;-70
2022/06/13 06:15:53;;;;;;;24.55;9.80;;;17.90;99.90;;;;;;5055594;28;20032;-70
2022/06/13 06:18:20;;;;;;;27.98;10.05;;;17.90;99.90;;;;;;5055458;28;20025;-70
2022/06/13 06:20:46;;;;;;;25.67;10.10;;;17.80;99.90;;;;;;5055329;28;20025;-70
2022/06/13 06:23:12;;;;;;;24.73;9.50;;;18.00;99.90;;;;;;5055388;28;20366;-70
2022/06/13 06:25:39;;;;;;;25.15;8.85;;;18.00;99.90;;;;;;5052753;28;20021;-70
2022/06/13 06:28:05;;;;;;;19.50;8.80;;;18.00;99.90;;;;;;5044698;28;20474;-70
2022/06/13 06:30:32;;;;;;;23.38;9.18;;;18.10;99.90;;;;;;5047135;28;20028;-70
2022/06/13 06:32:59;;;;;;;20.42;8.80;;;18.30;99.90;;;;;;5045372;28;20036;-70
2022/06/13 06:35:27;;;;;;;16.20;8.65;;;18.20;99.90;;;;;;5049389;28;20025;-70
2022/06/13 06:37:54;;;;;;;22.33;9.05;;;18.30;99.90;;;;;;5045748;28;20025;-70
2022/06/13 06:40:23;;;;;;;20.75;8.75;;;18.40;99.90;;;;;;5045059;28;20017;-70
2022/06/13 06:42:49;;;;;;;21.92;8.57;;;18.50;99.90;;;;;;5044070;28;20108;-70
2022/06/13 06:45:14;;;;;;;16.15;8.38;;;18.50;99.90;;;;;;5044250;28;20116;-70
2022/06/13 06:47:41;;;;;;;21.88;7.65;;;18.50;99.90;;;;;;5044871;28;20025;-70
2022/06/13 06:50:12;;;;;;;17.55;7.70;;;18.50;99.90;;;;;;5051075;28;20166;-70
2022/06/13 06:52:38;;;;;;;20.05;8.65;;;18.50;99.90;;;;;;5054430;28;20064;-70
2022/06/13 07:00:33;;;;;;;16.65;6.85;;;18.70;99.90;;;;;;5048986;28;20507;-68
2022/06/13 07:02:58;;;;;;;18.35;7.40;;;18.80;99.90;;;;;;5051659;28;20029;-68
2022/06/13 07:05:24;;;;;;;22.60;8.05;;;18.80;99.90;;;;;;5052593;28;20021;-70
2022/06/13 07:07:50;;;;;;;19.85;7.18;;;18.80;99.90;;;;;;5054243;28;20056;-70
2022/06/13 07:10:15;;;;;;;18.13;7.85;;;18.90;99.90;;;;;;5044518;28;20116;-70
2022/06/13 07:12:41;;;;;;;18.33;8.30;;;19.00;99.90;;;;;;5033662;28;20038;-70
2022/06/13 07:15:07;;;;;;;16.35;6.88;;;19.00;99.90;;;;;;5033674;28;20494;-70
2022/06/13 07:17:33;;;;;;;15.45;7.07;;;18.90;99.90;;;;;;5040025;28;20020;-69
2022/06/13 07:19:59;;;;;;;19.38;6.95;;;19.00;99.90;;;;;;5053668;28;20025;-70
2022/06/13 07:22:26;;;;;;;15.93;5.85;;;19.10;99.90;;;;;;5053582;28;20474;-70
2022/06/13 07:24:51;;;;;;;14.75;5.97;;;19.10;99.90;;;;;;5042655;28;20036;-70
2022/06/13 07:27:17;;;;;;;14.73;5.47;;;19.20;99.90;;;;;;5037433;28;20026;-70
2022/06/13 07:29:43;;;;;;;10.05;5.22;;;19.20;99.90;;;;;;5043091;28;20063;-70
2022/06/13 07:32:17;;;;;;;12.95;5.40;;;19.40;99.90;;;;;;5050902;28;20112;-69
2022/06/13 07:34:44;;;;;;;15.07;5.65;;;19.60;99.90;;;;;;5055456;28;20132;-71
2022/06/13 07:37:13;;;;;;;16.60;5.55;;;19.70;99.90;;;;;;5069166;28;20013;-70
2022/06/13 07:39:39;;;;;;;13.27;5.47;;;19.70;99.90;;;;;;5053931;28;20040;-71
2022/06/13 07:42:05;;;;;;;13.05;5.63;;;19.90;99.90;;;;;;5052434;28;20420;-71
2022/06/13 07:44:38;;;;;;;12.18;4.63;;;20.00;99.90;;;;;;5003950;28;1418674;-71
2022/06/13 07:47:04;;;;;;;14.65;5.13;;;20.10;99.90;;;;;;5053434;28;20021;-71
2022/06/13 07:49:30;;;;;;;13.68;4.50;;;20.20;99.90;;;;;;5054602;28;20104;-71
2022/06/13 07:51:56;;;;;;;12.30;4.22;;;20.30;99.90;;;;;;5062556;28;20116;-71
2022/06/13 07:54:22;;;;;;;9.30;3.85;;;20.20;99.90;;;;;;5055153;28;20037;-74
2022/06/13 07:56:48;;;;;;;10.10;4.25;;;20.40;99.90;;;;;;5053339;28;20021;-72
2022/06/13 07:59:17;;;;;;;12.90;4.03;;;20.40;99.90;;;;;;5047302;28;20489;-72
2022/06/13 08:01:43;;;;;;;13.18;3.97;;;20.40;99.90;;;;;;5042750;28;20037;-72
2022/06/13 08:04:09;;;;;;;8.82;3.53;;;20.50;99.90;;;;;;5043952;28;20024;-71
2022/06/13 08:06:38;;;;;;;10.93;4.32;;;20.50;99.90;;;;;;5050276;28;20029;-71
2022/06/13 08:09:04;;;;;;;10.23;3.78;;;20.40;99.90;;;;;;5051505;28;20021;-71
2022/06/13 08:11:34;;;;;;;10.50;4.10;;;20.40;99.90;;;;;;5040255;28;20025;-72
2022/06/13 08:14:00;;;;;;;14.50;4.15;;;20.30;99.90;;;;;;5036676;28;20021;-72
2022/06/13 08:16:27;;;;;;;13.60;4.20;;;20.40;99.90;;;;;;5048702;28;20424;-72
2022/06/13 08:18:52;;;;;;;12.15;3.70;;;20.80;99.90;;;;;;5044753;28;20029;-72
2022/06/13 08:21:19;;;;;;;9.25;3.97;;;21.00;99.90;;;;;;5049272;28;20089;-72
2022/06/13 08:23:45;;;;;;;13.40;3.80;;;21.20;99.90;;;;;;5046972;28;20220;-71
2022/06/13 08:26:11;;;;;;;10.23;4.28;;;21.30;99.90;;;;;;5044953;28;20108;-72
2022/06/13 08:28:37;;;;;;;9.90;4.97;;;21.40;99.90;;;;;;5057891;28;20021;-72
2022/06/13 08:31:12;;;;;;;11.65;4.68;;;21.50;99.90;;;;;;5065025;28;20033;-72
2022/06/13 08:33:39;;;;;;;12.18;4.20;;;21.30;99.90;;;;;;5058987;28;20033;-72
2022/06/13 08:36:06;;;;;;;12.48;4.65;;;21.10;99.90;;;;;;5066065;28;20154;-72
2022/06/13 08:38:31;;;;;;;10.15;3.17;;;20.90;99.90;;;;;;5058611;28;20029;-72
2022/06/13 08:41:14;;;;;;;7.75;3.38;;;20.90;99.80;;;;;;5037163;28;20100;-71
2022/06/13 08:44:22;;;;;;;9.15;3.10;;;21.30;99.90;;;;;;5053905;28;20032;-72
2022/06/13 08:47:32;;;;;;;9.20;2.83;;;21.40;99.90;;;;;;5043301;28;20115;-72
2022/06/13 08:50:16;;;;;;;8.68;3.10;;;21.20;99.40;;;;;;5037682;28;20033;-71
2022/06/13 08:52:48;;;;;;;9.10;3.53;;;21.00;98.50;;;;;;5047459;28;20104;-72
2022/06/13 08:55:31;;;;;;;9.32;3.15;;;21.00;98.70;;;;;;5055399;28;20451;-72
2022/06/13 08:58:11;;;;;;;7.40;2.80;;;20.90;99.10;;;;;;5049602;28;20052;-71
2022/06/13 09:00:40;;;;;;;10.35;3.45;;;20.80;99.90;;;;;;5058598;28;20021;-71
2022/06/13 09:03:14;;;;;;;7.90;2.70;;;20.80;99.90;;;;;;5067154;28;20456;-73
2022/06/13 09:05:54;;;;;;;6.80;2.95;;;20.90;99.90;;;;;;5056349;28;20027;-71
2022/06/13 09:08:20;;;;;;;10.30;3.30;;;21.00;99.10;;;;;;5049227;28;20470;-72
2022/06/13 09:11:06;;;;;;;8.50;2.70;;;20.90;99.40;;;;;;5044746;28;20032;-72
2022/06/13 09:14:02;;;;;;;6.93;2.85;;;20.90;99.80;;;;;;5042423;28;20039;-72
2022/06/13 09:16:32;;;;;;;5.07;2.10;;;21.30;99.90;;;;;;5053648;28;20116;-71
2022/06/13 09:19:15;;;;;;;7.68;2.60;;;21.80;99.90;;;;;;5068111;28;20020;-71
2022/06/13 09:21:56;;;;;;;6.65;2.38;;;22.10;99.50;;;;;;5058786;28;20020;-71
2022/06/13 09:24:40;;;;;;;6.78;2.40;;;22.30;98.70;;;;;;5059845;28;20032;-71
2022/06/13 09:27:13;;;;;;;8.30;2.58;;;22.40;97.10;;;;;;5046789;28;20075;-71
2022/06/13 09:29:44;;;;;;;5.68;2.63;;;22.50;97.70;;;;;;5043845;28;20030;-71
2022/06/13 09:32:19;;;;;;;6.22;2.45;;;22.70;95.70;;;;;;5062111;28;20031;-72
2022/06/13 09:34:48;;;;;;;7.70;2.35;;;22.70;97.90;;;;;;5068050;28;20059;-71
2022/06/13 09:37:16;;;;;;;6.40;2.53;;;22.40;95.50;;;;;;5054678;28;20052;-71
2022/06/13 09:39:42;;;;;;;4.88;2.40;;;22.30;95.50;;;;;;5064228;28;20056;-71
2022/06/13 09:42:17;;;;;;;4.72;2.25;;;22.30;96.40;;;;;;5062146;28;20079;-71
2022/06/13 09:45:15;;;;;;;8.50;2.78;;;22.50;97.20;;;;;;5046017;28;20044;-71
2022/06/13 09:48:15;;;;;;;4.53;2.40;;;22.90;96.90;;;;;;5045549;28;20021;-71
2022/06/13 09:51:24;;;;;;;6.40;2.10;;;23.10;95.40;;;;;;5045509;28;20414;-72
2022/06/13 09:54:41;;;;;;;11.95;2.63;;;22.70;95.20;;;;;;5046706;28;20048;-71
2022/06/13 09:57:32;;;;;;;8.75;2.38;;;22.50;96.20;;;;;;5084718;28;20028;-71
2022/06/13 10:00:00;;;;;;;4.13;1.85;;;22.70;95.80;;;;;;5088942;28;20028;-71
2022/06/13 10:02:38;;;;;;;5.40;1.83;;;22.60;94.50;;;;;;5052593;28;20446;-70
2022/06/13 10:05:13;;;;;;;5.32;2.17;;;22.50;94.70;;;;;;5068083;28;20036;-71
2022/06/13 10:07:53;;;;;;;4.35;1.85;;;22.20;94.70;;;;;;5065965;28;20023;-71
2022/06/13 10:10:36;;;;;;;3.78;1.60;;;22.10;95.50;;;;;;5045448;28;20061;-72
2022/06/13 10:13:19;;;;;;;5.55;1.90;;;21.80;94.90;;;;;;5057577;28;20072;-72
2022/06/13 10:15:44;;;;;;;5.18;2.40;;;21.70;95.80;;;;;;5062846;28;20366;-71
2022/06/13 10:18:10;;;;;;;4.60;1.77;;;21.70;96.90;;;;;;5062294;28;20078;-71
2022/06/13 10:20:58;;;;;;;6.38;1.73;;;21.70;96.20;;;;;;5057563;28;20025;-71
2022/06/13 10:23:41;;;;;;;6.28;2.05;;;21.80;96.30;;;;;;5054590;28;20110;-71
2022/06/13 10:26:25;;;;;;;5.63;2.28;;;21.80;96.40;;;;;;5050922;28;20028;-70
2022/06/13 10:29:26;;;;;;;7.22;1.98;;;21.60;96.30;;;;;;5055016;28;20362;-71
2022/06/13 10:32:06;;;;;;;7.72;1.80;;;21.50;96.70;;;;;;5047725;28;20117;-71
2022/06/13 10:34:51;;;;;;;7.32;1.45;;;21.30;96.90;;;;;;5057684;28;20037;-71
2022/06/13 10:37:24;;;;;;;5.10;1.55;;;21.80;97.90;;;;;;5070295;28;20028;-71
2022/06/13 10:39:54;;;;;;;5.22;1.50;;;21.80;97.10;;;;;;5056651;28;20053;-72
2022/06/13 10:42:24;;;;;;;3.03;1.27;;;21.80;94.80;;;;;;5050289;28;20163;-70
2022/06/13 10:44:51;;;;;;;3.28;1.35;;;21.80;95.70;;;;;;5070361;28;20060;-72
2022/06/13 10:47:42;;;;;;;5.43;1.38;;;22.20;96.30;;;;;;5053587;28;20024;-72
2022/06/13 10:50:30;;;;;;;6.30;1.10;;;22.20;95.80;;;;;;5064496;28;20068;-73
2022/06/13 10:53:02;;;;;;;3.90;1.35;;;22.10;95.00;;;;;;5066258;28;20071;-72
2022/06/13 10:55:33;;;;;;;4.73;1.10;;;21.90;95.40;;;;;;5068205;28;20459;-72
2022/06/13 10:58:05;;;;;;;3.13;1.20;;;22.00;95.40;;;;;;5063891;28;20013;-72
2022/06/13 11:00:32;;;;;;;3.55;1.10;;;22.40;95.70;;;;;;5062545;28;20028;-72
2022/06/13 11:03:17;;;;;;;3.00;1.10;;;22.60;94.50;;;;;;5057926;28;20477;-72
2022/06/13 11:05:48;;;;;;;5.25;1.30;;;22.40;93.30;;;;;;5067684;28;20017;-72
2022/06/13 11:08:15;;;;;;;2.65;1.10;;;22.20;93.70;;;;;;5047286;28;20124;-71
2022/06/13 11:10:50;;;;;;;3.97;1.05;;;22.60;93.40;;;;;;5049211;28;20017;-72
2022/06/13 11:13:34;;;;;;;3.25;1.20;;;22.60;93.80;;;;;;5069191;28;20496;-72
2022/06/13 11:24:53;;;;;;;2.50;1.00;;;22.50;93.70;;;;;;5067544;28;20102;-72
2022/06/13 11:27:39;;;;;;;5.28;1.52;;;22.40;93.90;;;;;;5039477;28;20021;-72
2022/06/13 11:30:27;;;;;;;2.47;1.15;;;22.20;93.70;;;;;;5033999;28;20025;-73
2022/06/13 11:33:10;;;;;;;3.88;1.20;;;22.10;94.60;;;;;;5066984;28;20039;-74
2022/06/13 11:35:45;;;;;;;3.65;1.10;;;22.40;94.30;;;;;;5045268;28;20107;-72
2022/06/13 11:38:17;;;;;;;3.33;1.15;;;22.90;94.90;;;;;;5062491;28;20021;-72
2022/06/13 11:40:46;;;;;;;3.63;1.00;;;23.20;94.90;;;;;;5040909;28;20030;-72
2022/06/13 11:43:30;;;;;;;4.32;1.27;;;23.00;93.40;;;;;;5069350;28;20043;-72
2022/06/13 11:45:58;;;;;;;3.53;1.58;;;22.80;94.00;;;;;;5062540;28;20028;-73
2022/06/13 11:48:26;;;;;;;3.17;1.35;;;22.80;94.00;;;;;;5066030;28;20028;-72
2022/06/13 11:51:03;;;;;;;1.88;0.77;;;23.10;94.40;;;;;;5070052;28;20100;-71
2022/06/13 11:53:38;;;;;;;2.85;1.15;;;23.20;93.40;;;;;;5051639;28;20493;-73
2022/06/13 11:56:11;;;;;;;7.55;1.25;;;23.10;93.90;;;;;;5062745;28;20029;-72
2022/06/13 11:58:41;;;;;;;3.97;1.20;;;22.90;93.40;;;;;;5055013;28;20492;-73
2022/06/13 12:01:35;;;;;;;5.47;1.42;;;22.80;94.20;;;;;;5045487;28;20047;-73
2022/06/13 12:04:13;;;;;;;3.38;1.17;;;22.40;93.80;;;;;;5052130;28;20025;-72
2022/06/13 12:06:56;;;;;;;1.10;0.90;;;22.10;94.10;;;;;;5057341;28;20112;-72
2022/06/13 12:09:23;;;;;;;3.83;0.80;;;22.70;94.00;;;;;;5033291;28;20021;-72
2022/06/13 12:12:00;;;;;;;3.58;1.77;;;23.20;93.50;;;;;;5047952;28;20033;-72
2022/06/13 12:14:27;;;;;;;4.05;1.35;;;23.40;93.40;;;;;;5064776;28;20046;-72
2022/06/13 12:16:59;;;;;;;2.35;1.20;;;23.30;92.70;;;;;;5054462;28;20012;-72
2022/06/13 12:19:38;;;;;;;5.00;1.05;;;23.40;92.80;;;;;;5048837;28;20017;-73
2022/06/13 12:22:20;;;;;;;1.38;0.90;;;23.00;92.00;;;;;;5048658;28;20026;-72
2022/06/13 12:24:57;;;;;;;4.65;0.70;;;22.70;93.10;;;;;;5064136;28;20170;-73
2022/06/13 12:27:42;;;;;;;2.83;0.90;;;22.50;92.90;;;;;;5043693;28;20024;-72
2022/06/13 12:30:20;;;;;;;4.15;1.05;;;22.40;93.10;;;;;;5052883;28;20431;-72
2022/06/13 12:32:57;;;;;;;3.60;1.20;;;22.60;93.90;;;;;;5056450;28;20032;-72
2022/06/13 12:35:53;;;;;;;2.38;0.90;;;23.00;93.60;;;;;;5040547;28;20021;-71
2022/06/13 12:38:35;;;;;;;4.40;1.30;;;23.40;91.40;;;;;;5061171;28;20032;-72
2022/06/13 12:41:06;;;;;;;3.45;0.90;;;23.50;91.20;;;;;;5037718;28;20057;-73
2022/06/13 12:43:58;;;;;;;2.33;0.77;;;23.40;92.60;;;;;;5055256;28;20047;-72
2022/06/13 12:47:11;;;;;;;4.28;0.95;;;23.00;92.00;;;;;;5057081;28;20500;-72
2022/06/13 12:49:58;;;;;;;1.50;0.90;;;22.70;91.80;;;;;;5060952;28;20421;-73
2022/06/13 12:52:45;;;;;;;3.38;0.90;;;22.50;92.00;;;;;;5059889;28;20039;-71
2022/06/13 12:55:58;;;;;;;4.22;1.20;;;22.60;92.20;;;;;;5065824;28;20040;-72
2022/06/13 12:58:48;;;;;;;5.78;1.20;;;22.60;92.80;;;;;;5055478;28;20094;-71
2022/06/13 13:01:22;;;;;;;3.03;0.98;;;22.70;92.40;;;;;;5050729;28;20537;-72
2022/06/13 13:03:56;;;;;;;2.22;0.70;;;22.60;92.50;;;;;;5059688;28;20111;-72
2022/06/13 13:06:22;;;;;;;1.58;1.10;;;22.50;92.60;;;;;;5059244;28;20152;-72
2022/06/13 13:09:12;;;;;;;2.53;0.98;;;22.40;92.80;;;;;;5063544;28;20036;-72
2022/06/13 13:11:52;;;;;;;3.08;0.95;;;22.40;92.30;;;;;;5045910;28;20064;-71
2022/06/13 13:14:42;;;;;;;2.90;1.20;;;22.90;92.60;;;;;;5051591;28;20036;-71
2022/06/13 13:17:29;;;;;;;2.95;1.02;;;23.20;92.90;;;;;;5064695;28;20402;-73
2022/06/13 13:20:14;;;;;;;2.17;0.95;;;23.50;92.80;;;;;;5050157;28;20028;-72
2022/06/13 13:23:21;;;;;;;2.63;0.85;;;23.70;92.80;;;;;;5051932;28;20036;-73
2022/06/13 13:26:14;;;;;;;2.03;0.95;;;23.90;91.50;;;;;;5046204;28;20033;-71
2022/06/13 13:29:01;;;;;;;3.28;1.08;;;23.60;91.30;;;;;;5057015;28;20021;-72
2022/06/13 13:31:34;;;;;;;3.78;0.90;;;23.90;91.40;;;;;;5040628;28;20082;-73
2022/06/13 13:34:28;;;;;;;2.50;1.05;;;23.90;90.50;;;;;;5062006;28;20139;-72
2022/06/13 13:37:19;;;;;;;3.20;1.00;;;24.10;90.20;;;;;;5064254;28;20500;-71
2022/06/13 13:40:26;;;;;;;3.05;0.95;;;24.00;88.40;;;;;;5060709;28;20064;-71
2022/06/13 13:43:03;;;;;;;4.15;0.80;;;23.90;87.90;;;;;;5056764;28;20037;-72
2022/06/13 13:45:44;;;;;;;2.67;1.15;;;23.80;91.20;;;;;;5041895;28;20028;-71
2022/06/13 13:48:36;;;;;;;2.00;1.00;;;23.90;90.20;;;;;;5061199;28;20053;-72